Time;durP1;ratioP1;P1;durP2;ratioP2;P2;SDS_P1;SDS_P2;PMS_P1;PMS_P2;Temp;Humidity;BMP_temperature;BMP_pressure;BME280_temperature;BME280_humidity;BME280_pressure;Samples;Min_cycle;Max_cycle;Signal;HPM_P1;HPM_P2
2023/09/03 06:50:53;;;;;;;25.60;22.90;;;;;;;16.53;100.00;97154.56;105168;1303;558105;-91
2023/09/03 06:53:22;;;;;;;25.00;22.40;;;;;;;16.46;100.00;97164.91;107175;1292;166177;-90
2023/09/03 06:55:53;;;;;;;22.60;20.40;;;;;;;16.40;100.00;97166.65;107374;1289;138005;-91
2023/09/03 06:58:23;;;;;;;23.00;20.90;;;;;;;16.37;100.00;97171.70;108119;1282;23543;-91
2023/09/03 07:01:04;;;;;;;24.00;21.60;;;;;;;16.33;100.00;97167.98;107957;1280;138437;-90
2023/09/03 07:03:37;;;;;;;23.10;20.80;;;;;;;16.32;100.00;97173.71;107906;1286;22652;-90
2023/09/03 07:06:04;;;;;;;21.50;19.30;;;;;;;16.30;100.00;97171.05;108041;1264;24316;-91
2023/09/03 07:08:31;;;;;;;21.90;19.60;;;;;;;16.26;100.00;97175.70;107736;1285;137963;-90
2023/09/03 07:11:00;;;;;;;22.50;20.50;;;;;;;16.24;100.00;97175.16;107994;1286;22484;-91
2023/09/03 07:13:34;;;;;;;22.40;20.10;;;;;;;16.23;100.00;97185.14;108015;1285;137838;-89
2023/09/03 07:16:06;;;;;;;20.90;18.90;;;;;;;16.20;100.00;97189.33;108202;1285;22562;-91
2023/09/03 07:18:33;;;;;;;23.50;21.20;;;;;;;16.17;100.00;97196.73;108087;1280;138324;-90
2023/09/03 07:21:04;;;;;;;22.50;20.30;;;;;;;16.15;100.00;97196.90;108002;1281;25425;-91
2023/09/03 07:23:31;;;;;;;22.00;19.80;;;;;;;16.12;100.00;97201.25;108081;1286;22516;-91
2023/09/03 07:26:05;;;;;;;23.10;20.70;;;;;;;16.10;100.00;97206.05;107772;1286;138594;-91
2023/09/03 07:28:33;;;;;;;26.90;24.30;;;;;;;16.06;100.00;97204.60;107800;1282;22500;-91
2023/09/03 07:31:05;;;;;;;25.40;22.90;;;;;;;16.01;100.00;97209.19;108190;1285;138498;-90
2023/09/03 07:33:32;;;;;;;24.70;22.20;;;;;;;15.97;100.00;97212.16;108062;1287;24121;-90
2023/09/03 07:35:59;;;;;;;26.50;23.90;;;;;;;15.95;100.00;97219.02;108002;1284;22553;-91
2023/09/03 07:38:27;;;;;;;27.60;24.80;;;;;;;15.94;100.00;97219.46;107849;1264;138093;-91
2023/09/03 07:40:55;;;;;;;28.20;25.20;;;;;;;15.92;100.00;97228.69;108249;1284;22572;-91
2023/09/03 07:43:29;;;;;;;26.50;22.80;;;;;;;15.88;100.00;97228.31;107996;1284;139490;-91
2023/09/03 07:45:57;;;;;;;27.40;24.70;;;;;;;15.86;100.00;97229.11;108117;1280;22559;-91
2023/09/03 07:48:25;;;;;;;29.60;26.70;;;;;;;15.85;100.00;97230.73;108296;1285;22573;-90
2023/09/03 07:50:55;;;;;;;29.30;26.40;;;;;;;15.84;100.00;97231.08;108029;1283;139062;-91
2023/09/03 07:53:23;;;;;;;30.90;27.70;;;;;;;15.85;100.00;97239.30;108078;1279;23943;-90
2023/09/03 07:55:59;;;;;;;32.40;28.20;;;;;;;15.85;100.00;97246.45;107937;1285;139283;-90
2023/09/03 07:58:26;;;;;;;32.10;28.80;;;;;;;15.86;100.00;97241.65;108265;1282;22498;-90
2023/09/03 08:00:54;;;;;;;31.40;28.10;;;;;;;15.87;100.00;97239.20;108089;1279;138466;-90
2023/09/03 08:03:34;;;;;;;32.50;29.00;;;;;;;15.91;100.00;97246.43;108109;1280;23135;-90
2023/09/03 08:06:02;;;;;;;32.80;29.50;;;;;;;15.92;100.00;97249.06;107978;1280;22586;-91
2023/09/03 08:08:30;;;;;;;31.20;27.90;;;;;;;15.94;100.00;97251.48;107972;1282;138577;-91
2023/09/03 08:11:55;;;;;;;32.10;28.90;;;;;;;15.99;100.00;97245.64;105077;1314;559655;-89
2023/09/03 08:14:27;;;;;;;30.10;26.90;;;;;;;15.99;100.00;97248.30;107365;1290;138081;-91
2023/09/03 08:16:54;;;;;;;29.90;26.90;;;;;;;15.99;100.00;97247.05;107428;1292;23349;-90
2023/09/03 08:19:25;;;;;;;32.20;28.20;;;;;;;16.02;100.00;97252.90;107397;1292;138246;-90
2023/09/03 08:21:51;;;;;;;27.40;24.40;;;;;;;16.05;100.00;97259.52;107237;1288;22551;-90
2023/09/03 08:24:19;;;;;;;29.50;26.60;;;;;;;16.05;100.00;97260.86;107526;1285;470822;-89
2023/09/03 08:26:48;;;;;;;29.40;26.50;;;;;;;16.08;100.00;97258.60;107733;1287;138164;-91
2023/09/03 08:29:14;;;;;;;28.40;25.60;;;;;;;16.12;100.00;97256.38;107932;1280;24201;-91
2023/09/03 08:31:42;;;;;;;26.80;24.00;;;;;;;16.16;100.00;97263.86;107663;1285;137965;-90
2023/09/03 08:34:09;;;;;;;27.30;24.90;;;;;;;16.17;100.00;97261.13;107854;1283;22557;-89
2023/09/03 08:36:36;;;;;;;26.60;23.90;;;;;;;16.21;100.00;97257.98;107791;1281;138126;-90
2023/09/03 08:39:06;;;;;;;28.50;25.50;;;;;;;16.24;100.00;97265.05;108081;1285;24213;-90
2023/09/03 08:41:33;;;;;;;26.90;24.30;;;;;;;16.27;100.00;97263.50;107919;1284;23338;-89
2023/09/03 08:44:06;;;;;;;26.40;23.50;;;;;;;16.29;100.00;97266.77;107716;1283;138645;-91
2023/09/03 08:46:33;;;;;;;26.40;23.70;;;;;;;16.33;100.00;97263.33;107851;1277;22629;-91
2023/09/03 08:48:59;;;;;;;27.70;24.90;;;;;;;16.37;100.00;97260.59;107860;1276;138368;-90
2023/09/03 08:51:26;;;;;;;27.60;24.70;;;;;;;16.38;100.00;97265.71;107973;1281;22551;-91
2023/09/03 08:53:53;;;;;;;26.50;23.80;;;;;;;16.41;100.00;97267.13;107987;1279;25426;-91
2023/09/03 08:56:19;;;;;;;24.70;22.40;;;;;;;16.43;100.00;97266.36;107877;1281;138205;-91
2023/09/03 08:58:46;;;;;;;22.50;20.20;;;;;;;16.43;100.00;97266.17;108016;1281;25399;-90
2023/09/03 09:01:13;;;;;;;25.90;23.50;;;;;;;16.45;100.00;97262.57;108326;1277;138427;-91
2023/09/03 09:03:39;;;;;;;23.40;21.20;;;;;;;16.47;100.00;97262.48;108139;1278;24455;-91
2023/09/03 09:06:07;;;;;;;22.80;20.60;;;;;;;16.52;100.00;97261.89;108328;1277;22529;-90
2023/09/03 09:08:33;;;;;;;24.30;21.80;;;;;;;16.57;100.00;97256.16;108171;1277;139317;-89
2023/09/03 09:11:06;;;;;;;22.80;20.60;;;;;;;16.62;100.00;97256.75;108166;1277;22659;-90
2023/09/03 09:13:35;;;;;;;19.90;18.00;;;;;;;16.67;100.00;97259.53;108081;1270;137749;-92
2023/09/03 09:16:01;;;;;;;20.60;18.60;;;;;;;16.68;100.00;97256.67;108181;1279;22546;-89
2023/09/03 09:18:27;;;;;;;20.80;18.90;;;;;;;16.70;100.00;97255.83;108279;1270;22533;-89
2023/09/03 09:20:55;;;;;;;17.40;15.80;;;;;;;16.72;100.00;97263.94;108146;1278;138096;-90
2023/09/03 09:23:22;;;;;;;17.00;15.30;;;;;;;16.74;100.00;97261.41;108201;1256;22642;-90
2023/09/03 09:25:50;;;;;;;16.70;15.20;;;;;;;16.79;100.00;97259.45;108090;1273;138903;-91
2023/09/03 09:28:16;;;;;;;15.90;14.30;;;;;;;16.83;100.00;97255.61;108004;1278;25911;-91
2023/09/03 09:30:53;;;;;;;16.10;14.40;;;;;;;16.84;100.00;97257.79;108112;1270;138127;-91
2023/09/03 09:33:20;;;;;;;15.10;13.70;;;;;;;16.84;100.00;97262.52;108102;1278;22547;-90
2023/09/03 09:35:46;;;;;;;16.30;14.70;;;;;;;16.87;100.00;97268.45;108222;1276;22558;-91
2023/09/03 09:38:12;;;;;;;15.60;14.20;;;;;;;16.93;100.00;97268.11;107990;1279;138274;-90
2023/09/03 09:40:39;;;;;;;15.10;13.40;;;;;;;16.95;100.00;97262.47;108222;1256;22530;-91
2023/09/03 09:43:08;;;;;;;14.60;13.30;;;;;;;16.94;100.00;97262.70;108168;1278;138330;-91
2023/09/03 09:45:48;;;;;;;14.10;12.80;;;;;;;16.98;100.00;97261.77;108293;1277;22488;-91
2023/09/03 09:48:15;;;;;;;14.50;13.10;;;;;;;17.02;100.00;97260.48;108153;1269;22555;-91
2023/09/03 09:50:43;;;;;;;13.40;12.20;;;;;;;17.06;100.00;97263.27;108165;1274;138649;-90
2023/09/03 09:53:25;;;;;;;13.30;12.00;;;;;;;17.10;100.00;97263.59;108267;1278;22558;-90
2023/09/03 09:56:03;;;;;;;13.10;11.90;;;;;;;17.13;100.00;97263.08;108113;1272;138218;-90
2023/09/03 09:58:39;;;;;;;13.30;12.10;;;;;;;17.15;100.00;97256.65;108149;1263;24214;-91
2023/09/03 10:01:07;;;;;;;13.20;11.80;;;;;;;17.16;100.00;97253.79;108041;1279;138027;-91
2023/09/03 10:04:01;;;;;;;13.20;11.80;;;;;;;17.17;100.00;97253.75;108013;1280;22504;-90
2023/09/03 10:06:27;;;;;;;;;;;;;;;17.25;100.00;97246.95;108246;1280;22617;-91
2023/09/03 10:08:54;;;;;;;12.60;11.30;;;;;;;17.31;100.00;97251.04;108248;1279;123867;-91
2023/09/03 10:11:20;;;;;;;18.40;16.50;;;;;;;17.33;100.00;97249.25;108094;1278;22580;-92
2023/09/03 10:13:50;;;;;;;13.40;12.20;;;;;;;17.35;100.00;97245.02;107960;1280;138560;-91
2023/09/03 10:16:21;;;;;;;11.90;10.90;;;;;;;17.39;100.00;97245.86;108136;1279;22552;-91
2023/09/03 10:18:57;;;;;;;14.40;13.00;;;;;;;17.46;100.00;97235.44;108110;1280;137076;-90
2023/09/03 10:21:30;;;;;;;13.50;12.30;;;;;;;17.53;100.00;97235.77;108176;1279;22643;-91
2023/09/03 10:23:57;;;;;;;13.00;11.80;;;;;;;17.58;100.00;97228.46;108045;1279;22577;-91
2023/09/03 10:26:39;;;;;;;13.40;12.00;;;;;;;17.60;100.00;97225.99;108004;1280;139153;-90
2023/09/03 10:29:14;;;;;;;12.70;11.40;;;;;;;17.62;100.00;97236.50;108324;1275;22502;-91
2023/09/03 10:31:48;;;;;;;13.10;11.80;;;;;;;17.62;100.00;97246.61;108196;1274;139181;-90
2023/09/03 10:34:14;;;;;;;12.00;10.90;;;;;;;17.56;100.00;97242.48;108331;1275;22544;-90
2023/09/03 10:37:10;;;;;;;;;;;;;;;17.52;100.00;97236.02;108092;1279;138559;-90
2023/09/03 10:39:54;;;;;;;12.30;11.10;;;;;;;17.48;100.00;97241.52;108335;1273;23195;-91
2023/09/03 10:42:23;;;;;;;14.50;13.10;;;;;;;17.48;100.00;97242.02;108450;1279;23304;-91
2023/09/03 10:45:00;;;;;;;14.70;13.30;;;;;;;17.45;100.00;97240.64;108194;1279;138936;-90
2023/09/03 10:48:05;;;;;;;17.90;16.10;;;;;;;17.40;100.00;97241.73;108246;1280;25439;-91
2023/09/03 10:50:43;;;;;;;15.60;14.20;;;;;;;17.41;100.00;97243.52;108100;1273;138427;-91
2023/09/03 10:53:37;;;;;;;15.30;13.80;;;;;;;17.44;100.00;97240.33;108148;1280;22498;-92
2023/09/03 10:56:14;;;;;;;16.50;15.00;;;;;;;17.49;100.00;97242.45;107959;1274;138141;-91
2023/09/03 10:59:00;;;;;;;17.00;14.30;;;;;;;17.58;100.00;97247.05;107966;1279;22914;-91
2023/09/03 11:01:33;;;;;;;15.80;14.20;;;;;;;17.71;100.00;97243.13;107819;1279;138128;-90
2023/09/03 11:04:04;;;;;;;15.60;14.20;;;;;;;17.77;100.00;97240.34;108022;1279;23420;-91
2023/09/03 11:06:32;;;;;;;14.30;13.10;;;;;;;17.79;100.00;97240.82;108042;1279;139737;-91
2023/09/03 11:08:58;;;;;;;14.40;13.10;;;;;;;17.74;100.00;97241.88;108018;1279;25423;-91
2023/09/03 11:11:25;;;;;;;15.30;13.80;;;;;;;17.67;100.00;97242.67;108113;1272;22536;-91
2023/09/03 11:13:52;;;;;;;13.10;12.00;;;;;;;17.67;100.00;97241.53;107988;1279;138361;-91
2023/09/03 11:16:37;;;;;;;13.60;12.30;;;;;;;17.68;100.00;97236.38;108004;1280;24447;-91
2023/09/03 11:19:07;;;;;;;15.20;13.80;;;;;;;17.77;100.00;97231.80;108125;1257;140121;-90
2023/09/03 11:21:35;;;;;;;13.80;12.40;;;;;;;17.84;100.00;97221.23;108004;1279;22533;-89
2023/09/03 11:24:20;;;;;;;12.90;11.60;;;;;;;17.93;100.00;97219.21;108045;1280;22531;-91
2023/09/03 11:26:47;;;;;;;16.50;14.80;;;;;;;18.00;100.00;97214.73;107807;1272;138061;-90
2023/09/03 11:29:23;;;;;;;15.60;14.00;;;;;;;18.06;100.00;97217.83;108131;1274;23348;-90
2023/09/03 11:31:49;;;;;;;13.00;11.70;;;;;;;18.14;100.00;97218.70;107881;1280;138497;-89
2023/09/03 11:34:17;;;;;;;12.80;11.60;;;;;;;18.18;100.00;97216.48;107948;1276;22990;-91
2023/09/03 11:36:46;;;;;;;13.70;12.20;;;;;;;18.26;100.00;97217.46;107738;1279;139845;-91
2023/09/03 11:39:20;;;;;;;11.00;9.90;;;;;;;18.29;100.00;97222.98;107818;1271;22563;-91
2023/09/03 11:41:48;;;;;;;11.50;10.40;;;;;;;18.29;100.00;97218.02;107803;1276;22472;-89
2023/09/03 11:44:21;;;;;;;13.70;12.30;;;;;;;18.37;100.00;97210.65;107643;1279;139776;-90
2023/09/03 11:47:14;;;;;;;10.90;9.80;;;;;;;18.49;100.00;97207.67;108074;1279;22596;-89
2023/09/03 11:49:47;;;;;;;11.20;10.10;;;;;;;18.54;100.00;97208.27;107801;1279;139546;-90
2023/09/03 11:52:15;;;;;;;11.60;10.20;;;;;;;18.53;100.00;97205.33;107973;1274;22551;-91
2023/09/03 11:54:42;;;;;;;13.80;11.20;;;;;;;18.61;100.00;97211.33;107748;1279;138648;-90
2023/09/03 11:57:11;;;;;;;10.70;9.60;;;;;;;18.64;100.00;97209.34;108106;1274;23725;-90
2023/09/03 11:59:37;;;;;;;10.90;9.80;;;;;;;18.63;100.00;97210.15;107791;1271;22550;-90
2023/09/03 12:02:04;;;;;;;10.30;9.10;;;;;;;18.67;100.00;97207.38;107644;1279;139004;-91
2023/09/03 12:04:31;;;;;;;9.00;8.20;;;;;;;18.68;100.00;97206.52;107903;1279;22547;-90
2023/09/03 12:06:57;;;;;;;8.80;8.00;;;;;;;18.67;100.00;97204.74;107857;1276;138586;-89
2023/09/03 12:09:26;;;;;;;9.40;8.60;;;;;;;18.59;100.00;97205.75;107977;1273;22611;-89
2023/09/03 12:11:55;;;;;;;;;;;;;;;18.53;100.00;97209.59;108241;1279;25284;-91
2023/09/03 12:14:29;;;;;;;8.70;8.00;;;;;;;18.46;100.00;97205.30;107903;1277;125794;-91
2023/09/03 12:16:55;;;;;;;8.60;7.70;;;;;;;18.40;100.00;97205.38;107940;1280;22541;-90
2023/09/03 12:19:21;;;;;;;8.90;8.10;;;;;;;18.35;100.00;97206.95;107990;1274;138127;-91
2023/09/03 12:21:51;;;;;;;9.00;8.20;;;;;;;18.36;100.00;97204.45;107998;1280;24208;-90
2023/09/03 12:24:17;;;;;;;8.30;7.60;;;;;;;18.43;100.00;97202.94;108082;1272;23768;-91
2023/09/03 12:26:47;;;;;;;8.90;8.10;;;;;;;18.52;100.00;97207.08;108091;1277;138532;-90
2023/09/03 12:29:21;;;;;;;8.30;7.50;;;;;;;18.62;100.00;97205.58;108081;1274;22585;-91
2023/09/03 12:31:47;;;;;;;8.50;7.80;;;;;;;18.65;100.00;97207.07;107873;1276;138381;-90
2023/09/03 12:34:15;;;;;;;8.30;7.50;;;;;;;18.71;100.00;97201.21;107972;1271;23089;-90
2023/09/03 12:36:56;;;;;;;8.00;7.30;;;;;;;18.77;100.00;97200.89;107836;1278;137788;-91
2023/09/03 12:39:33;;;;;;;9.40;8.50;;;;;;;18.81;100.00;97196.71;108110;1274;24278;-91
2023/09/03 12:42:04;;;;;;;9.10;8.30;;;;;;;18.87;100.00;97191.90;108124;1279;24208;-91
2023/09/03 12:44:31;;;;;;;10.20;9.20;;;;;;;18.85;100.00;97195.31;107955;1280;138716;-91
2023/09/03 12:46:59;;;;;;;10.20;9.40;;;;;;;18.78;100.00;97189.98;108116;1274;23068;-91
2023/09/03 12:49:26;;;;;;;8.70;7.90;;;;;;;18.75;100.00;97192.03;108006;1279;139344;-91
2023/09/03 12:51:52;;;;;;;10.30;9.40;;;;;;;18.69;100.00;97193.73;108028;1274;22589;-91
2023/09/03 12:54:19;;;;;;;9.60;8.10;;;;;;;18.63;100.00;97193.23;108136;1279;24293;-90
2023/09/03 12:56:47;;;;;;;8.90;8.10;;;;;;;18.54;100.00;97191.75;107966;1274;138112;-90
2023/09/03 12:59:14;;;;;;;8.90;8.00;;;;;;;18.51;100.00;97195.78;108087;1277;24202;-90
2023/09/03 13:01:42;;;;;;;9.20;7.90;;;;;;;18.48;100.00;97198.41;107943;1271;138958;-92
2023/09/03 13:04:29;;;;;;;9.90;9.10;;;;;;;18.44;100.00;97199.60;108102;1274;22651;-90
2023/09/03 13:06:55;;;;;;;8.70;7.90;;;;;;;18.46;100.00;97197.28;108020;1276;138886;-91
2023/09/03 13:09:21;;;;;;;8.30;7.60;;;;;;;18.49;100.00;97197.46;108122;1279;22545;-91
2023/09/03 13:11:47;;;;;;;8.60;7.00;;;;;;;18.52;100.00;97197.48;108025;1280;25283;-90
2023/09/03 13:14:14;;;;;;;7.60;6.90;;;;;;;18.55;100.00;97194.23;107866;1279;138747;-90
2023/09/03 13:16:40;;;;;;;8.80;7.20;;;;;;;18.59;100.00;97195.59;107910;1277;25111;-91
2023/09/03 13:19:07;;;;;;;7.90;7.20;;;;;;;18.58;100.00;97200.66;108003;1279;137239;-89
2023/09/03 13:21:35;;;;;;;8.20;7.40;;;;;;;18.52;100.00;97200.77;107930;1278;22488;-90
2023/09/03 13:24:03;;;;;;;7.10;6.40;;;;;;;18.47;100.00;97197.27;108110;1271;22615;-90
2023/09/03 13:26:30;;;;;;;6.60;5.90;;;;;;;18.47;100.00;97197.15;108008;1272;138907;-91
2023/09/03 13:28:57;;;;;;;11.90;7.60;;;;;;;18.44;100.00;97200.29;108101;1272;24550;-90
2023/09/03 13:31:25;;;;;;;7.60;6.90;;;;;;;18.43;100.00;97219.61;108083;1274;137453;-90
2023/09/03 13:33:55;;;;;;;8.50;7.10;;;;;;;18.33;100.00;97233.01;108407;1274;22621;-90
2023/09/03 13:36:26;;;;;;;6.40;5.50;;;;;;;18.19;100.00;97228.10;108037;1279;22722;-91
2023/09/03 13:38:52;;;;;;;8.10;5.80;;;;;;;18.01;100.00;97208.88;108054;1279;138919;-91
2023/09/03 13:41:19;;;;;;;7.60;5.80;;;;;;;17.83;100.00;97200.45;107914;1276;25372;-91
2023/09/03 13:43:47;;;;;;;12.30;6.90;;;;;;;17.68;100.00;97203.26;108089;1272;138384;-91
2023/09/03 13:46:14;;;;;;;10.70;7.10;;;;;;;17.57;100.00;97208.16;108193;1271;22621;-90
2023/09/03 13:48:41;;;;;;;8.40;6.80;;;;;;;17.50;100.00;97209.95;108138;1278;138687;-91
2023/09/03 13:51:12;;;;;;;10.90;8.00;;;;;;;17.42;100.00;97209.28;108322;1279;23343;-91
2023/09/03 13:53:39;;;;;;;7.80;7.10;;;;;;;17.34;100.00;97215.55;108014;1279;22551;-91
2023/09/03 13:56:06;;;;;;;9.60;7.10;;;;;;;17.27;100.00;97217.18;108095;1277;138443;-91
2023/09/03 13:58:34;;;;;;;9.10;6.60;;;;;;;17.19;100.00;97216.04;108153;1279;22536;-91
2023/09/03 14:01:06;;;;;;;8.00;7.30;;;;;;;17.16;100.00;97216.41;108111;1276;138406;-91
2023/09/03 14:03:35;;;;;;;8.20;7.20;;;;;;;17.18;100.00;97212.17;108210;1276;22475;-91
2023/09/03 14:06:11;;;;;;;8.20;7.50;;;;;;;17.22;100.00;97212.13;108276;1274;22716;-91
2023/09/03 14:08:39;;;;;;;9.50;8.30;;;;;;;17.25;100.00;97216.98;107961;1279;138423;-91
2023/09/03 14:11:06;;;;;;;9.60;8.70;;;;;;;17.32;100.00;97217.79;108056;1274;22537;-92
2023/09/03 14:13:32;;;;;;;9.50;8.10;;;;;;;17.38;100.00;97219.58;107959;1271;139084;-90
2023/09/03 14:15:59;;;;;;;8.40;7.60;;;;;;;17.43;100.00;97220.04;107887;1276;22574;-90
2023/09/03 14:18:27;;;;;;;8.20;7.50;;;;;;;17.46;100.00;97219.05;108017;1275;22543;-90
2023/09/03 14:20:53;;;;;;;8.80;8.00;;;;;;;17.53;100.00;97222.02;107872;1280;137985;-90
2023/09/03 14:23:20;;;;;;;9.00;8.10;;;;;;;17.59;100.00;97219.48;107880;1275;22496;-90
2023/09/03 14:25:47;;;;;;;8.20;7.40;;;;;;;17.64;100.00;97220.36;107896;1275;138539;-90
2023/09/03 14:28:13;;;;;;;8.60;7.50;;;;;;;17.68;100.00;97219.23;107804;1277;22527;-90
2023/09/03 14:30:40;;;;;;;7.90;7.20;;;;;;;17.73;100.00;97218.63;107644;1279;138471;-90
2023/09/03 14:33:07;;;;;;;7.80;7.20;;;;;;;17.77;100.00;97214.90;107789;1277;22579;-90
2023/09/03 14:35:33;;;;;;;7.20;6.60;;;;;;;17.79;100.00;97218.21;107849;1277;22562;-90
2023/09/03 14:37:59;;;;;;;8.70;7.00;;;;;;;17.74;100.00;97217.20;107677;1279;138809;-89
2023/09/03 14:40:25;;;;;;;8.50;7.40;;;;;;;17.69;100.00;97218.59;107781;1278;22540;-90
2023/09/03 14:42:51;;;;;;;7.80;6.60;;;;;;;17.66;100.00;97219.06;107675;1279;138332;-90
2023/09/03 14:45:18;;;;;;;7.40;6.60;;;;;;;17.63;100.00;97221.17;107712;1279;22585;-89
2023/09/03 14:47:45;;;;;;;7.20;6.40;;;;;;;17.59;100.00;97221.35;107820;1279;22485;-90
2023/09/03 14:50:12;;;;;;;6.90;6.30;;;;;;;17.56;100.00;97224.16;107827;1277;138864;-90
2023/09/03 14:52:38;;;;;;;7.60;6.90;;;;;;;17.54;100.00;97224.98;107800;1281;24217;-89
2023/09/03 14:55:04;;;;;;;6.30;5.60;;;;;;;17.54;100.00;97228.01;107548;1278;138565;-89
2023/09/03 14:57:30;;;;;;;8.00;7.00;;;;;;;17.54;100.00;97226.91;107923;1281;24207;-90
2023/09/03 14:59:58;;;;;;;6.80;6.10;;;;;;;17.55;100.00;97227.20;107872;1275;22645;-89
2023/09/03 15:02:24;;;;;;;7.70;6.70;;;;;;;17.56;100.00;97225.02;107815;1277;139424;-91
2023/09/03 15:04:50;;;;;;;6.40;5.90;;;;;;;17.59;100.00;97225.40;107963;1275;22548;-90
2023/09/03 15:07:16;;;;;;;7.70;7.00;;;;;;;17.60;100.00;97226.27;107787;1279;138370;-90
2023/09/03 15:09:42;;;;;;;7.50;6.20;;;;;;;17.61;100.00;97228.66;107996;1266;25436;-90
2023/09/03 15:12:09;;;;;;;7.10;6.50;;;;;;;17.61;100.00;97230.23;108229;1279;22600;-90
2023/09/03 15:14:37;;;;;;;7.70;6.60;;;;;;;17.59;100.00;97234.45;107950;1279;138991;-90
2023/09/03 15:17:05;;;;;;;7.40;6.70;;;;;;;17.56;100.00;97239.85;108308;1279;24247;-91
2023/09/03 15:19:38;;;;;;;7.70;7.00;;;;;;;17.52;100.00;97243.13;107967;1277;138502;-91
2023/09/03 15:22:04;;;;;;;7.20;6.50;;;;;;;17.52;100.00;97239.09;108095;1279;22554;-90
2023/09/03 15:24:33;;;;;;;7.20;6.60;;;;;;;17.53;100.00;97238.52;107944;1279;138282;-90
2023/09/03 15:26:59;;;;;;;7.50;6.80;;;;;;;17.53;100.00;97239.70;107988;1275;25476;-90
2023/09/03 15:29:25;;;;;;;7.60;6.90;;;;;;;17.52;100.00;97238.36;107998;1281;22541;-90
2023/09/03 15:31:58;;;;;;;7.90;5.80;;;;;;;17.52;100.00;97241.64;107741;1279;138706;-90
2023/09/03 15:34:24;;;;;;;7.20;6.60;;;;;;;17.52;100.00;97239.17;107958;1280;23441;-90
2023/09/03 15:36:51;;;;;;;8.00;6.30;;;;;;;17.50;100.00;97233.92;107767;1279;138252;-90
2023/09/03 15:39:19;;;;;;;6.70;6.10;;;;;;;17.50;100.00;97236.47;107916;1279;23429;-90
2023/09/03 15:41:45;;;;;;;6.50;5.80;;;;;;;17.50;100.00;97242.41;108068;1280;25426;-89
2023/09/03 15:44:12;;;;;;;8.10;6.80;;;;;;;17.50;100.00;97244.48;108134;1276;138291;-90
2023/09/03 15:46:38;;;;;;;6.60;6.00;;;;;;;17.52;100.00;97246.33;107850;1277;25505;-91
2023/09/03 15:49:06;;;;;;;6.90;6.20;;;;;;;17.54;100.00;97248.46;107753;1279;138542;-90
2023/09/03 15:51:33;;;;;;;6.00;5.50;;;;;;;17.54;100.00;97247.48;107955;1269;22580;-91
2023/09/03 15:54:00;;;;;;;6.20;5.60;;;;;;;17.51;100.00;97248.76;108058;1275;22737;-90
2023/09/03 15:56:27;;;;;;;6.30;5.60;;;;;;;17.47;100.00;97253.77;107721;1279;138662;-90
2023/09/03 15:58:55;;;;;;;5.50;5.00;;;;;;;17.43;100.00;97251.92;107936;1276;25432;-88
2023/09/03 16:01:21;;;;;;;5.70;5.10;;;;;;;17.36;100.00;97251.19;107760;1280;138378;-90
2023/09/03 16:03:48;;;;;;;5.40;4.90;;;;;;;17.28;100.00;97254.52;107785;1275;22771;-89
2023/09/03 16:06:14;;;;;;;5.10;4.70;;;;;;;17.20;100.00;97262.95;107809;1257;24391;-89
2023/09/03 16:08:40;;;;;;;5.00;4.50;;;;;;;17.08;100.00;97262.76;107731;1280;138543;-90
2023/09/03 16:11:09;;;;;;;4.60;4.20;;;;;;;16.99;100.00;97263.35;107808;1280;22559;-91
2023/09/03 16:13:37;;;;;;;6.20;4.90;;;;;;;16.91;100.00;97267.38;107733;1279;138250;-91
2023/09/03 16:16:09;;;;;;;5.00;4.50;;;;;;;16.80;100.00;97272.60;107936;1279;24185;-90
2023/09/03 16:18:35;;;;;;;6.10;4.60;;;;;;;16.70;100.00;97277.70;107867;1279;138183;-90
2023/09/03 16:21:02;;;;;;;5.60;4.40;;;;;;;16.63;100.00;97278.77;107941;1279;24237;-90
2023/09/03 16:23:28;;;;;;;4.80;4.40;;;;;;;16.55;100.00;97279.21;107905;1275;25401;-89
2023/09/03 16:25:54;;;;;;;4.70;4.20;;;;;;;16.45;100.00;97278.66;107895;1279;138051;-90
2023/09/03 16:28:20;;;;;;;5.00;4.50;;;;;;;16.39;100.00;97282.30;108014;1279;22563;-90
2023/09/03 16:30:48;;;;;;;6.50;5.30;;;;;;;16.29;100.00;97285.53;107943;1279;139498;-90
2023/09/03 16:33:16;;;;;;;7.10;5.40;;;;;;;16.18;100.00;97286.17;108193;1274;22543;-90
2023/09/03 16:35:44;;;;;;;5.30;4.40;;;;;;;16.10;100.00;97290.65;107865;1277;22533;-90
2023/09/03 16:38:10;;;;;;;6.20;5.30;;;;;;;16.05;100.00;97285.22;107899;1277;138017;-90
2023/09/03 16:40:36;;;;;;;5.90;5.10;;;;;;;16.02;100.00;97282.47;107999;1276;22610;-91
2023/09/03 16:43:02;;;;;;;5.50;5.00;;;;;;;16.00;100.00;97274.15;107736;1280;138842;-90
2023/09/03 16:45:29;;;;;;;5.90;5.40;;;;;;;15.99;100.00;97280.03;107864;1279;22542;-89
2023/09/03 16:47:56;;;;;;;5.60;4.70;;;;;;;15.96;100.00;97283.81;107902;1279;25544;-90
2023/09/03 16:50:23;;;;;;;4.70;4.30;;;;;;;15.92;100.00;97284.53;108017;1279;138380;-90
2023/09/03 16:52:49;;;;;;;7.60;4.80;;;;;;;15.89;100.00;97286.09;107843;1275;22597;-90
2023/09/03 16:55:15;;;;;;;5.80;5.30;;;;;;;15.86;100.00;97289.84;107924;1270;138690;-90
2023/09/03 16:57:42;;;;;;;5.10;4.30;;;;;;;15.82;100.00;97289.17;107889;1277;25009;-90
2023/09/03 17:00:09;;;;;;;6.20;5.00;;;;;;;15.77;100.00;97290.29;107917;1279;22633;-89
2023/09/03 17:02:36;;;;;;;5.60;5.10;;;;;;;15.74;100.00;97291.92;107777;1274;138853;-91
2023/09/03 17:05:03;;;;;;;6.10;4.90;;;;;;;15.72;100.00;97296.36;107970;1279;22545;-89
2023/09/03 17:07:29;;;;;;;5.00;4.60;;;;;;;15.69;100.00;97296.58;107880;1280;139328;-90
2023/09/03 17:09:55;;;;;;;5.60;4.90;;;;;;;15.65;100.00;97295.39;107851;1279;22615;-91
2023/09/03 17:12:22;;;;;;;5.90;4.60;;;;;;;15.60;100.00;97298.52;107858;1260;22555;-90
2023/09/03 17:14:49;;;;;;;5.70;5.10;;;;;;;15.56;100.00;97302.45;107786;1279;138625;-90
2023/09/03 17:17:15;;;;;;;6.00;5.40;;;;;;;15.53;100.00;97305.63;107880;1273;24269;-90
2023/09/03 17:19:41;;;;;;;7.30;5.00;;;;;;;15.53;100.00;97307.88;107646;1277;139630;-90
2023/09/03 17:22:07;;;;;;;5.10;4.60;;;;;;;15.52;100.00;97311.55;107855;1277;22568;-91
2023/09/03 17:24:33;;;;;;;6.20;4.70;;;;;;;15.50;100.00;97314.75;107825;1275;139231;-90
2023/09/03 17:26:59;;;;;;;5.50;5.00;;;;;;;15.48;100.00;97314.98;107796;1278;25950;-90
2023/09/03 17:29:26;;;;;;;5.40;4.90;;;;;;;15.46;100.00;97316.13;107987;1274;25422;-90
2023/09/03 17:31:52;;;;;;;6.80;4.90;;;;;;;15.44;100.00;97315.69;107738;1273;138570;-90
2023/09/03 17:34:18;;;;;;;6.50;5.10;;;;;;;15.41;100.00;97319.70;107952;1276;22707;-90
2023/09/03 17:36:45;;;;;;;5.40;4.80;;;;;;;15.38;100.00;97325.52;107646;1277;138656;-89
2023/09/03 17:39:12;;;;;;;5.50;5.00;;;;;;;15.35;100.00;97327.32;107917;1279;25405;-89
2023/09/03 17:41:38;;;;;;;7.00;5.10;;;;;;;15.32;100.00;97330.77;107855;1277;23022;-89
2023/09/03 17:44:04;;;;;;;7.30;5.00;;;;;;;15.28;100.00;97334.09;107925;1271;138037;-89
2023/09/03 17:46:30;;;;;;;6.20;5.50;;;;;;;15.24;100.00;97333.70;107981;1277;22581;-90
2023/09/03 17:48:57;;;;;;;5.50;5.00;;;;;;;15.22;100.00;97335.82;107840;1272;138651;-88
2023/09/03 17:51:23;;;;;;;6.70;5.60;;;;;;;15.21;100.00;97334.57;107936;1280;24289;-90
2023/09/03 17:53:50;;;;;;;6.40;4.80;;;;;;;15.20;100.00;97336.48;107834;1278;24221;-90
2023/09/03 17:56:17;;;;;;;6.20;5.10;;;;;;;15.19;100.00;97339.17;107603;1279;138614;-89
2023/09/03 17:58:43;;;;;;;5.70;5.00;;;;;;;15.17;100.00;97340.30;107681;1279;24180;-89
2023/09/03 18:01:09;;;;;;;5.70;4.60;;;;;;;15.16;100.00;97345.84;107704;1275;138210;-90
2023/09/03 18:03:36;;;;;;;6.10;4.90;;;;;;;15.16;100.00;97346.61;107738;1276;22556;-89
2023/09/03 18:06:23;;;;;;;5.80;5.20;;;;;;;15.16;100.00;97353.21;107907;1278;25597;-90